»·PEaware :: N117SB KBLH-KLAX

N117SB :: KBLH-KLAX

FLIGHT INFORMATION

Flight Status: Arrived
Operator: Privately registered:
United States
More flights under this callsign
Pilot: Dean S. (16265)
Aircraft: DIAMOND DA-42 TWINSTAR
(DA42)
More flights by this aircraft type
Origin: KBLH Blythe
United States
Destination: KLAX Los Angeles Intl
United States
More flights between these airports :: More routes between these airports
Route: BLH V16 LAX
File this flight plan on PilotEdge
Remarks:
Altitude:
(Current/Filed)
6,500ft
Speed:
(Current/Filed)
150kts
Departed: 10-Oct-17 02:02 PM
Arrived: 10-Oct-17 03:16 PM
Distance/Time
Traveled:
185nm/1:14
Distance/Time
To Go:
Arrived

Flight Plot

Page will automatically refresh every two minutes.

Flight plan parsing failed; only flown route is shown


Map Options




Map Legend


Flown Route
Filed Route
Departure Airport
Arrival Airport
Navaid (VOR, NDB)
Fix

Horizontal Profiles

Position Reports

Time Latitude Longitude Heading Altitude Ground
Speed
10-Oct-17 14:05 33.616059 -114.706473 7 400ft 10kts
10-Oct-17 14:06 33.616715 -114.717069 271 405ft 96kts
10-Oct-17 14:07 33.617579 -114.749766 272 1636ft 90kts
10-Oct-17 14:08 33.627228 -114.780831 289 2628ft 119kts
10-Oct-17 14:09 33.635412 -114.823012 280 3363ft 136kts
10-Oct-17 14:10 33.642525 -114.868785 280 4067ft 141kts
10-Oct-17 14:11 33.649425 -114.913914 280 4976ft 133kts
10-Oct-17 14:12 33.656048 -114.957386 280 5972ft 131kts
10-Oct-17 14:13 33.662628 -115.000676 280 6970ft 132kts
10-Oct-17 14:14 33.669247 -115.044325 280 7969ft 133kts
10-Oct-17 14:15 33.676323 -115.091077 280 8513ft 158kts
10-Oct-17 14:16 33.684704 -115.146581 280 8470ft 174kts
10-Oct-17 14:17 33.693260 -115.203479 280 8472ft 174kts
10-Oct-17 14:18 33.701949 -115.261468 280 8471ft 175kts
10-Oct-17 14:19 33.710529 -115.318918 279 8475ft 175kts
10-Oct-17 14:20 33.719110 -115.376574 279 8476ft 175kts
10-Oct-17 14:22 33.727638 -115.434061 279 8477ft 175kts
10-Oct-17 14:23 33.736138 -115.491559 279 8477ft 175kts
10-Oct-17 14:24 33.744628 -115.549171 279 8502ft 174kts
10-Oct-17 14:25 33.753064 -115.606581 279 8503ft 175kts
10-Oct-17 14:26 33.761528 -115.664350 279 8498ft 175kts
10-Oct-17 14:27 33.769935 -115.721973 279 8496ft 175kts
10-Oct-17 14:28 33.777971 -115.779671 279 8493ft 175kts
10-Oct-17 14:29 33.786251 -115.837512 279 8491ft 175kts
10-Oct-17 14:30 33.794557 -115.895166 279 8487ft 175kts
10-Oct-17 14:31 33.802850 -115.952852 279 8483ft 175kts
10-Oct-17 14:32 33.811147 -116.010759 279 8469ft 176kts
10-Oct-17 14:33 33.819404 -116.068581 279 8467ft 175kts
10-Oct-17 14:34 33.827624 -116.126348 279 8476ft 175kts
10-Oct-17 14:35 33.835798 -116.183997 279 8489ft 174kts
10-Oct-17 14:36 33.843930 -116.241549 279 8498ft 175kts
10-Oct-17 14:37 33.852075 -116.299390 279 8503ft 175kts
10-Oct-17 14:38 33.860170 -116.357097 279 8505ft 175kts
10-Oct-17 14:39 33.868266 -116.415034 279 8503ft 175kts
10-Oct-17 14:40 33.872344 -116.473003 271 8498ft 169kts
10-Oct-17 14:41 33.874111 -116.528334 272 8501ft 163kts
10-Oct-17 14:42 33.876180 -116.582949 272 8506ft 162kts
10-Oct-17 14:43 33.878269 -116.637200 272 8516ft 162kts
10-Oct-17 14:44 33.880341 -116.691425 272 8528ft 162kts
10-Oct-17 14:45 33.882394 -116.746154 272 8164ft 167kts
10-Oct-17 14:46 33.884455 -116.801380 272 7646ft 163kts
10-Oct-17 14:47 33.886467 -116.855904 272 7140ft 162kts
10-Oct-17 14:48 33.888436 -116.909896 272 6649ft 161kts
10-Oct-17 14:49 33.890237 -116.960292 272 6894ft 129kts
10-Oct-17 14:50 33.892050 -117.011356 272 6511ft 154kts
10-Oct-17 14:51 33.893840 -117.062207 272 6501ft 150kts
10-Oct-17 14:52 33.895580 -117.112250 272 6492ft 150kts
10-Oct-17 14:53 33.897309 -117.162534 272 6485ft 150kts
10-Oct-17 14:54 33.899018 -117.212789 272 6480ft 150kts
10-Oct-17 14:55 33.900782 -117.265192 272 6478ft 163kts
10-Oct-17 14:56 33.902606 -117.320304 272 6473ft 165kts
10-Oct-17 14:56 33.904120 -117.366673 272 6467ft 166kts
10-Oct-17 14:58 33.906209 -117.431429 272 6459ft 166kts
10-Oct-17 14:59 33.907746 -117.487089 271 6456ft 166kts
10-Oct-17 14:59 33.908988 -117.533297 272 6453ft 166kts
10-Oct-17 15:01 33.911244 -117.598025 272 6448ft 166kts
10-Oct-17 15:01 33.913175 -117.643459 273 6448ft 165kts
10-Oct-17 15:02 33.922474 -117.698109 282 6452ft 165kts
10-Oct-17 15:03 33.932773 -117.752921 282 6454ft 166kts
10-Oct-17 15:05 33.943958 -117.812428 282 6447ft 148kts
10-Oct-17 15:05 33.951495 -117.852486 282 6446ft 146kts
10-Oct-17 15:06 33.960506 -117.900332 282 6442ft 146kts
10-Oct-17 15:07 33.969488 -117.947971 282 6438ft 146kts
10-Oct-17 15:08 33.978717 -117.995224 272 6207ft 147kts
10-Oct-17 15:09 33.972143 -118.047834 261 4925ft 160kts
10-Oct-17 15:10 33.970098 -118.086924 264 4456ft 93kts
10-Oct-17 15:11 33.966036 -118.117618 266 4149ft 92kts
10-Oct-17 15:12 33.962422 -118.150105 266 3618ft 105kts
10-Oct-17 15:13 33.959706 -118.185246 256 2976ft 99kts
10-Oct-17 15:14 33.955273 -118.218187 262 2538ft 104kts
10-Oct-17 15:15 33.951326 -118.252020 265 2152ft 95kts
10-Oct-17 15:16 33.948040 -118.285659 257 1655ft 94kts
10-Oct-17 15:17 33.944594 -118.315978 262 1103ft 83kts
10-Oct-17 15:18 33.941457 -118.343759 264 703ft 84kts
10-Oct-17 15:19 33.938614 -118.371529 261 322ft 83kts
10-Oct-17 15:20 33.936428 -118.391629 259 129ft 13kts
10-Oct-17 15:21 33.934911 -118.394524 255 129ft 13kts
10-Oct-17 15:22 33.933712 -118.398764 251 129ft 10kts
10-Oct-17 15:23 33.932777 -118.399011 168 129ft 0kts
10-Oct-17 15:24 33.932777 -118.399011 168 129ft 0kts

Navigation Log

Ident Type
Flight plan parsing failed, navigation log unavailable